sensor_id;sensor_type;location;lat;lon;timestamp;P1;durP1;ratioP1;P2;durP2;ratioP2
76039;SDS011;64736;50.462;4.850;2023-11-21T00:00:14;15.75;;;9.10;;
76039;SDS011;64736;50.462;4.850;2023-11-21T00:02:41;19.70;;;9.95;;
76039;SDS011;64736;50.462;4.850;2023-11-21T00:05:07;20.27;;;9.75;;
76039;SDS011;64736;50.462;4.850;2023-11-21T00:07:35;18.80;;;10.45;;
76039;SDS011;64736;50.462;4.850;2023-11-21T00:10:02;21.42;;;11.20;;
76039;SDS011;64736;50.462;4.850;2023-11-21T00:12:28;19.77;;;10.80;;
76039;SDS011;64736;50.462;4.850;2023-11-21T00:14:54;22.05;;;11.35;;
76039;SDS011;64736;50.462;4.850;2023-11-21T00:17:20;20.30;;;11.00;;
76039;SDS011;64736;50.462;4.850;2023-11-21T00:19:46;21.17;;;10.50;;
76039;SDS011;64736;50.462;4.850;2023-11-21T00:22:12;20.85;;;11.23;;
76039;SDS011;64736;50.462;4.850;2023-11-21T00:24:38;19.95;;;10.52;;
76039;SDS011;64736;50.462;4.850;2023-11-21T00:27:03;22.90;;;11.02;;
76039;SDS011;64736;50.462;4.850;2023-11-21T00:29:29;22.48;;;12.40;;
76039;SDS011;64736;50.462;4.850;2023-11-21T00:31:55;22.08;;;11.68;;
76039;SDS011;64736;50.462;4.850;2023-11-21T00:34:20;25.10;;;11.95;;
76039;SDS011;64736;50.462;4.850;2023-11-21T00:36:46;22.77;;;11.45;;
76039;SDS011;64736;50.462;4.850;2023-11-21T00:39:12;27.35;;;12.88;;
76039;SDS011;64736;50.462;4.850;2023-11-21T00:41:37;21.17;;;11.75;;
76039;SDS011;64736;50.462;4.850;2023-11-21T00:44:03;26.85;;;13.18;;
76039;SDS011;64736;50.462;4.850;2023-11-21T00:46:29;26.13;;;13.13;;
76039;SDS011;64736;50.462;4.850;2023-11-21T00:48:55;30.50;;;13.30;;
76039;SDS011;64736;50.462;4.850;2023-11-21T00:51:21;20.83;;;11.63;;
76039;SDS011;64736;50.462;4.850;2023-11-21T00:53:47;26.80;;;14.00;;
76039;SDS011;64736;50.462;4.850;2023-11-21T00:56:13;25.42;;;14.02;;
76039;SDS011;64736;50.462;4.850;2023-11-21T00:58:40;24.23;;;12.88;;
76039;SDS011;64736;50.462;4.850;2023-11-21T01:01:11;26.35;;;14.05;;
76039;SDS011;64736;50.462;4.850;2023-11-21T01:03:37;25.45;;;13.65;;
76039;SDS011;64736;50.462;4.850;2023-11-21T01:06:03;27.80;;;13.60;;
76039;SDS011;64736;50.462;4.850;2023-11-21T01:08:33;25.25;;;12.85;;
76039;SDS011;64736;50.462;4.850;2023-11-21T01:10:59;27.67;;;13.45;;
76039;SDS011;64736;50.462;4.850;2023-11-21T01:13:24;26.13;;;13.73;;
76039;SDS011;64736;50.462;4.850;2023-11-21T01:15:55;29.70;;;13.50;;
76039;SDS011;64736;50.462;4.850;2023-11-21T01:18:21;30.38;;;14.35;;
76039;SDS011;64736;50.462;4.850;2023-11-21T01:20:47;27.48;;;13.60;;
76039;SDS011;64736;50.462;4.850;2023-11-21T01:23:13;22.63;;;12.93;;
76039;SDS011;64736;50.462;4.850;2023-11-21T01:25:39;26.58;;;12.32;;
76039;SDS011;64736;50.462;4.850;2023-11-21T01:28:05;28.52;;;14.20;;
76039;SDS011;64736;50.462;4.850;2023-11-21T01:30:30;29.60;;;12.65;;
76039;SDS011;64736;50.462;4.850;2023-11-21T01:32:57;27.30;;;13.48;;
76039;SDS011;64736;50.462;4.850;2023-11-21T01:35:23;26.10;;;13.85;;
76039;SDS011;64736;50.462;4.850;2023-11-21T01:37:49;27.70;;;12.05;;
76039;SDS011;64736;50.462;4.850;2023-11-21T01:40:15;28.95;;;13.27;;
76039;SDS011;64736;50.462;4.850;2023-11-21T01:42:41;26.48;;;12.95;;
76039;SDS011;64736;50.462;4.850;2023-11-21T01:45:12;29.40;;;12.93;;
76039;SDS011;64736;50.462;4.850;2023-11-21T01:47:38;27.30;;;13.05;;
76039;SDS011;64736;50.462;4.850;2023-11-21T01:50:06;30.92;;;13.50;;
76039;SDS011;64736;50.462;4.850;2023-11-21T01:52:34;23.92;;;11.70;;
76039;SDS011;64736;50.462;4.850;2023-11-21T01:55:00;26.67;;;12.48;;
76039;SDS011;64736;50.462;4.850;2023-11-21T01:57:27;32.83;;;13.18;;
76039;SDS011;64736;50.462;4.850;2023-11-21T01:59:54;24.67;;;12.40;;
76039;SDS011;64736;50.462;4.850;2023-11-21T02:02:20;27.95;;;12.48;;
76039;SDS011;64736;50.462;4.850;2023-11-21T02:04:45;28.20;;;13.70;;
76039;SDS011;64736;50.462;4.850;2023-11-21T02:07:11;28.98;;;12.98;;
76039;SDS011;64736;50.462;4.850;2023-11-21T02:09:37;28.52;;;12.48;;
76039;SDS011;64736;50.462;4.850;2023-11-21T02:12:03;27.40;;;12.20;;
76039;SDS011;64736;50.462;4.850;2023-11-21T02:14:30;24.45;;;12.10;;
76039;SDS011;64736;50.462;4.850;2023-11-21T02:16:57;25.75;;;13.85;;
76039;SDS011;64736;50.462;4.850;2023-11-21T02:19:23;29.00;;;12.80;;
76039;SDS011;64736;50.462;4.850;2023-11-21T02:21:53;25.52;;;12.50;;
76039;SDS011;64736;50.462;4.850;2023-11-21T02:24:21;28.27;;;14.65;;
76039;SDS011;64736;50.462;4.850;2023-11-21T02:26:48;25.95;;;13.45;;
76039;SDS011;64736;50.462;4.850;2023-11-21T02:29:17;30.25;;;13.23;;
76039;SDS011;64736;50.462;4.850;2023-11-21T02:31:48;28.75;;;13.18;;
76039;SDS011;64736;50.462;4.850;2023-11-21T02:34:20;26.80;;;12.95;;
76039;SDS011;64736;50.462;4.850;2023-11-21T02:36:46;27.45;;;12.75;;
76039;SDS011;64736;50.462;4.850;2023-11-21T02:39:15;26.40;;;13.52;;
76039;SDS011;64736;50.462;4.850;2023-11-21T02:41:42;29.90;;;13.93;;
76039;SDS011;64736;50.462;4.850;2023-11-21T02:44:08;31.13;;;14.13;;
76039;SDS011;64736;50.462;4.850;2023-11-21T02:46:35;35.53;;;14.25;;
76039;SDS011;64736;50.462;4.850;2023-11-21T02:49:04;30.08;;;13.35;;
76039;SDS011;64736;50.462;4.850;2023-11-21T02:51:35;34.60;;;14.93;;
76039;SDS011;64736;50.462;4.850;2023-11-21T02:54:03;32.50;;;15.27;;
76039;SDS011;64736;50.462;4.850;2023-11-21T02:56:32;25.25;;;12.73;;
76039;SDS011;64736;50.462;4.850;2023-11-21T02:59:01;32.22;;;15.20;;
76039;SDS011;64736;50.462;4.850;2023-11-21T03:01:27;25.35;;;13.15;;
76039;SDS011;64736;50.462;4.850;2023-11-21T03:03:53;33.03;;;15.60;;
76039;SDS011;64736;50.462;4.850;2023-11-21T03:06:20;25.83;;;13.68;;
76039;SDS011;64736;50.462;4.850;2023-11-21T03:08:46;27.88;;;12.73;;
76039;SDS011;64736;50.462;4.850;2023-11-21T03:11:12;27.33;;;14.07;;
76039;SDS011;64736;50.462;4.850;2023-11-21T03:13:39;28.20;;;13.18;;
76039;SDS011;64736;50.462;4.850;2023-11-21T03:16:10;36.65;;;15.00;;
76039;SDS011;64736;50.462;4.850;2023-11-21T03:18:36;28.02;;;14.10;;
76039;SDS011;64736;50.462;4.850;2023-11-21T03:21:11;29.17;;;14.23;;
76039;SDS011;64736;50.462;4.850;2023-11-21T03:23:37;30.33;;;14.48;;
76039;SDS011;64736;50.462;4.850;2023-11-21T03:26:03;30.50;;;14.77;;
76039;SDS011;64736;50.462;4.850;2023-11-21T03:28:29;28.42;;;14.77;;
76039;SDS011;64736;50.462;4.850;2023-11-21T03:30:55;29.90;;;14.48;;
76039;SDS011;64736;50.462;4.850;2023-11-21T03:33:21;29.55;;;14.23;;
76039;SDS011;64736;50.462;4.850;2023-11-21T03:35:47;25.70;;;13.70;;
76039;SDS011;64736;50.462;4.850;2023-11-21T03:38:14;30.35;;;14.85;;
76039;SDS011;64736;50.462;4.850;2023-11-21T03:40:41;28.90;;;14.45;;
76039;SDS011;64736;50.462;4.850;2023-11-21T03:43:07;31.70;;;15.75;;
76039;SDS011;64736;50.462;4.850;2023-11-21T03:45:32;28.42;;;15.20;;
76039;SDS011;64736;50.462;4.850;2023-11-21T03:47:58;30.55;;;14.50;;
76039;SDS011;64736;50.462;4.850;2023-11-21T03:50:28;29.98;;;13.75;;
76039;SDS011;64736;50.462;4.850;2023-11-21T03:52:54;25.70;;;13.80;;
76039;SDS011;64736;50.462;4.850;2023-11-21T03:55:20;29.83;;;15.48;;
76039;SDS011;64736;50.462;4.850;2023-11-21T03:57:45;29.77;;;14.57;;
76039;SDS011;64736;50.462;4.850;2023-11-21T04:00:11;30.63;;;15.02;;
76039;SDS011;64736;50.462;4.850;2023-11-21T04:02:38;32.90;;;14.40;;
76039;SDS011;64736;50.462;4.850;2023-11-21T04:05:04;27.42;;;14.20;;
76039;SDS011;64736;50.462;4.850;2023-11-21T04:07:32;28.08;;;14.85;;
76039;SDS011;64736;50.462;4.850;2023-11-21T04:09:59;32.13;;;15.77;;
76039;SDS011;64736;50.462;4.850;2023-11-21T04:12:25;31.30;;;14.57;;
76039;SDS011;64736;50.462;4.850;2023-11-21T04:14:50;31.92;;;15.48;;
76039;SDS011;64736;50.462;4.850;2023-11-21T04:17:19;32.92;;;14.65;;
76039;SDS011;64736;50.462;4.850;2023-11-21T04:19:46;31.00;;;14.82;;
76039;SDS011;64736;50.462;4.850;2023-11-21T04:22:12;27.73;;;14.15;;
76039;SDS011;64736;50.462;4.850;2023-11-21T04:24:38;24.58;;;14.45;;
76039;SDS011;64736;50.462;4.850;2023-11-21T04:27:03;29.58;;;14.43;;
76039;SDS011;64736;50.462;4.850;2023-11-21T04:29:29;31.35;;;15.38;;
76039;SDS011;64736;50.462;4.850;2023-11-21T04:31:55;34.78;;;16.50;;
76039;SDS011;64736;50.462;4.850;2023-11-21T04:34:21;31.92;;;15.23;;
76039;SDS011;64736;50.462;4.850;2023-11-21T04:36:46;33.53;;;15.77;;
76039;SDS011;64736;50.462;4.850;2023-11-21T04:39:12;27.73;;;15.23;;
76039;SDS011;64736;50.462;4.850;2023-11-21T04:41:38;31.20;;;15.57;;
76039;SDS011;64736;50.462;4.850;2023-11-21T04:44:07;33.47;;;14.68;;
76039;SDS011;64736;50.462;4.850;2023-11-21T04:46:33;27.93;;;15.20;;
76039;SDS011;64736;50.462;4.850;2023-11-21T04:48:58;35.45;;;17.25;;
76039;SDS011;64736;50.462;4.850;2023-11-21T04:51:24;30.80;;;13.95;;
76039;SDS011;64736;50.462;4.850;2023-11-21T04:53:50;28.13;;;13.32;;
76039;SDS011;64736;50.462;4.850;2023-11-21T04:56:15;33.17;;;15.77;;
76039;SDS011;64736;50.462;4.850;2023-11-21T04:58:41;33.70;;;15.38;;
76039;SDS011;64736;50.462;4.850;2023-11-21T05:01:07;31.33;;;14.25;;
76039;SDS011;64736;50.462;4.850;2023-11-21T05:03:33;29.83;;;14.05;;
76039;SDS011;64736;50.462;4.850;2023-11-21T05:06:00;34.85;;;16.63;;
76039;SDS011;64736;50.462;4.850;2023-11-21T05:08:25;30.60;;;14.75;;
76039;SDS011;64736;50.462;4.850;2023-11-21T05:10:52;29.48;;;16.35;;
76039;SDS011;64736;50.462;4.850;2023-11-21T05:13:18;35.75;;;16.45;;
76039;SDS011;64736;50.462;4.850;2023-11-21T05:15:45;31.52;;;15.63;;
76039;SDS011;64736;50.462;4.850;2023-11-21T05:18:11;34.67;;;16.40;;
76039;SDS011;64736;50.462;4.850;2023-11-21T05:20:39;36.58;;;16.60;;
76039;SDS011;64736;50.462;4.850;2023-11-21T05:23:06;29.70;;;15.88;;
76039;SDS011;64736;50.462;4.850;2023-11-21T05:25:33;31.38;;;15.15;;
76039;SDS011;64736;50.462;4.850;2023-11-21T05:27:59;30.92;;;15.50;;
76039;SDS011;64736;50.462;4.850;2023-11-21T05:30:26;30.60;;;15.82;;
76039;SDS011;64736;50.462;4.850;2023-11-21T05:32:52;31.75;;;17.13;;
76039;SDS011;64736;50.462;4.850;2023-11-21T05:35:18;33.08;;;16.95;;
76039;SDS011;64736;50.462;4.850;2023-11-21T05:37:44;44.83;;;19.02;;
76039;SDS011;64736;50.462;4.850;2023-11-21T05:40:10;33.85;;;16.73;;
76039;SDS011;64736;50.462;4.850;2023-11-21T05:42:39;37.63;;;16.20;;
76039;SDS011;64736;50.462;4.850;2023-11-21T05:45:06;37.60;;;18.52;;
76039;SDS011;64736;50.462;4.850;2023-11-21T05:47:36;34.72;;;16.27;;
76039;SDS011;64736;50.462;4.850;2023-11-21T05:50:15;34.00;;;15.48;;
76039;SDS011;64736;50.462;4.850;2023-11-21T05:52:42;35.25;;;17.77;;
76039;SDS011;64736;50.462;4.850;2023-11-21T05:55:09;36.10;;;17.40;;
76039;SDS011;64736;50.462;4.850;2023-11-21T05:57:35;39.60;;;18.85;;
76039;SDS011;64736;50.462;4.850;2023-11-21T06:00:03;40.03;;;17.00;;
76039;SDS011;64736;50.462;4.850;2023-11-21T06:02:47;41.08;;;21.13;;
76039;SDS011;64736;50.462;4.850;2023-11-21T06:05:16;35.80;;;17.75;;
76039;SDS011;64736;50.462;4.850;2023-11-21T06:07:43;32.88;;;17.42;;
76039;SDS011;64736;50.462;4.850;2023-11-21T06:10:10;34.22;;;15.90;;
76039;SDS011;64736;50.462;4.850;2023-11-21T06:12:38;40.13;;;17.50;;
76039;SDS011;64736;50.462;4.850;2023-11-21T06:15:05;34.30;;;16.75;;
76039;SDS011;64736;50.462;4.850;2023-11-21T06:17:34;36.22;;;18.33;;
76039;SDS011;64736;50.462;4.850;2023-11-21T06:20:05;34.42;;;15.68;;
76039;SDS011;64736;50.462;4.850;2023-11-21T06:22:41;32.75;;;17.17;;
76039;SDS011;64736;50.462;4.850;2023-11-21T06:25:08;35.53;;;17.73;;
76039;SDS011;64736;50.462;4.850;2023-11-21T06:27:37;37.30;;;18.42;;
76039;SDS011;64736;50.462;4.850;2023-11-21T06:30:04;35.33;;;16.00;;
76039;SDS011;64736;50.462;4.850;2023-11-21T06:32:30;35.92;;;16.67;;
76039;SDS011;64736;50.462;4.850;2023-11-21T06:34:59;35.03;;;16.60;;
76039;SDS011;64736;50.462;4.850;2023-11-21T06:37:26;33.05;;;15.68;;
76039;SDS011;64736;50.462;4.850;2023-11-21T06:39:52;36.30;;;16.77;;
76039;SDS011;64736;50.462;4.850;2023-11-21T06:42:18;34.65;;;16.77;;
76039;SDS011;64736;50.462;4.850;2023-11-21T06:44:47;36.25;;;15.32;;
76039;SDS011;64736;50.462;4.850;2023-11-21T06:47:14;37.50;;;18.52;;
76039;SDS011;64736;50.462;4.850;2023-11-21T06:49:41;37.60;;;18.38;;
76039;SDS011;64736;50.462;4.850;2023-11-21T06:52:08;30.52;;;15.82;;
76039;SDS011;64736;50.462;4.850;2023-11-21T06:54:33;33.97;;;17.20;;
76039;SDS011;64736;50.462;4.850;2023-11-21T06:57:00;35.75;;;18.88;;
76039;SDS011;64736;50.462;4.850;2023-11-21T06:59:28;36.45;;;18.23;;
76039;SDS011;64736;50.462;4.850;2023-11-21T07:01:54;39.45;;;18.48;;
76039;SDS011;64736;50.462;4.850;2023-11-21T07:04:20;35.35;;;17.70;;
76039;SDS011;64736;50.462;4.850;2023-11-21T07:06:45;38.75;;;19.00;;
76039;SDS011;64736;50.462;4.850;2023-11-21T07:09:11;37.47;;;17.77;;
76039;SDS011;64736;50.462;4.850;2023-11-21T07:11:38;39.58;;;17.42;;
76039;SDS011;64736;50.462;4.850;2023-11-21T07:14:04;32.95;;;16.17;;
76039;SDS011;64736;50.462;4.850;2023-11-21T07:16:39;37.17;;;18.48;;
76039;SDS011;64736;50.462;4.850;2023-11-21T07:19:05;37.70;;;19.52;;
76039;SDS011;64736;50.462;4.850;2023-11-21T07:21:34;41.05;;;18.75;;
76039;SDS011;64736;50.462;4.850;2023-11-21T07:24:01;36.42;;;19.17;;
76039;SDS011;64736;50.462;4.850;2023-11-21T07:26:28;38.60;;;17.95;;
76039;SDS011;64736;50.462;4.850;2023-11-21T07:28:54;41.10;;;19.63;;
76039;SDS011;64736;50.462;4.850;2023-11-21T07:31:19;39.80;;;18.33;;
76039;SDS011;64736;50.462;4.850;2023-11-21T07:33:46;39.85;;;19.42;;
76039;SDS011;64736;50.462;4.850;2023-11-21T07:36:13;36.58;;;19.27;;
76039;SDS011;64736;50.462;4.850;2023-11-21T07:38:39;38.92;;;19.38;;
76039;SDS011;64736;50.462;4.850;2023-11-21T07:41:05;41.78;;;19.05;;
76039;SDS011;64736;50.462;4.850;2023-11-21T07:43:33;40.58;;;20.48;;
76039;SDS011;64736;50.462;4.850;2023-11-21T07:46:03;40.65;;;19.63;;
76039;SDS011;64736;50.462;4.850;2023-11-21T07:48:30;44.63;;;20.50;;
76039;SDS011;64736;50.462;4.850;2023-11-21T07:50:56;40.30;;;19.15;;
76039;SDS011;64736;50.462;4.850;2023-11-21T07:53:24;38.50;;;18.35;;
76039;SDS011;64736;50.462;4.850;2023-11-21T07:55:56;39.10;;;19.40;;
76039;SDS011;64736;50.462;4.850;2023-11-21T07:58:22;34.33;;;19.58;;
76039;SDS011;64736;50.462;4.850;2023-11-21T08:00:49;36.67;;;19.45;;
76039;SDS011;64736;50.462;4.850;2023-11-21T08:03:15;35.58;;;18.13;;
76039;SDS011;64736;50.462;4.850;2023-11-21T08:05:41;37.13;;;17.17;;
76039;SDS011;64736;50.462;4.850;2023-11-21T08:08:07;40.20;;;19.27;;
76039;SDS011;64736;50.462;4.850;2023-11-21T08:10:33;38.17;;;19.13;;
76039;SDS011;64736;50.462;4.850;2023-11-21T08:13:01;37.05;;;18.83;;
76039;SDS011;64736;50.462;4.850;2023-11-21T08:15:27;40.80;;;20.20;;
76039;SDS011;64736;50.462;4.850;2023-11-21T08:17:52;38.45;;;19.35;;
76039;SDS011;64736;50.462;4.850;2023-11-21T08:20:18;40.38;;;18.88;;
76039;SDS011;64736;50.462;4.850;2023-11-21T08:22:44;33.60;;;18.38;;
76039;SDS011;64736;50.462;4.850;2023-11-21T08:25:12;35.20;;;18.23;;
76039;SDS011;64736;50.462;4.850;2023-11-21T08:27:38;40.60;;;20.90;;
76039;SDS011;64736;50.462;4.850;2023-11-21T08:30:04;40.00;;;20.25;;
76039;SDS011;64736;50.462;4.850;2023-11-21T08:32:30;38.35;;;19.35;;
76039;SDS011;64736;50.462;4.850;2023-11-21T08:34:58;35.97;;;20.80;;
76039;SDS011;64736;50.462;4.850;2023-11-21T08:37:25;41.67;;;19.77;;
76039;SDS011;64736;50.462;4.850;2023-11-21T08:39:52;39.92;;;20.80;;
76039;SDS011;64736;50.462;4.850;2023-11-21T08:42:19;39.33;;;19.80;;
76039;SDS011;64736;50.462;4.850;2023-11-21T08:44:44;41.85;;;20.35;;
76039;SDS011;64736;50.462;4.850;2023-11-21T08:47:11;39.88;;;20.25;;
76039;SDS011;64736;50.462;4.850;2023-11-21T08:49:37;34.00;;;18.00;;
76039;SDS011;64736;50.462;4.850;2023-11-21T08:52:03;39.55;;;19.90;;
76039;SDS011;64736;50.462;4.850;2023-11-21T08:54:30;37.92;;;19.10;;
76039;SDS011;64736;50.462;4.850;2023-11-21T08:56:57;36.40;;;18.25;;
76039;SDS011;64736;50.462;4.850;2023-11-21T08:59:25;37.83;;;19.88;;
76039;SDS011;64736;50.462;4.850;2023-11-21T09:01:51;37.42;;;17.85;;
76039;SDS011;64736;50.462;4.850;2023-11-21T09:04:17;40.97;;;19.65;;
76039;SDS011;64736;50.462;4.850;2023-11-21T09:06:43;35.25;;;19.25;;
76039;SDS011;64736;50.462;4.850;2023-11-21T09:09:09;40.30;;;19.13;;
76039;SDS011;64736;50.462;4.850;2023-11-21T09:11:35;32.30;;;16.55;;
76039;SDS011;64736;50.462;4.850;2023-11-21T09:14:02;36.25;;;17.70;;
76039;SDS011;64736;50.462;4.850;2023-11-21T09:16:28;35.40;;;19.05;;
76039;SDS011;64736;50.462;4.850;2023-11-21T09:18:54;34.53;;;17.80;;
76039;SDS011;64736;50.462;4.850;2023-11-21T09:21:20;35.13;;;17.58;;
76039;SDS011;64736;50.462;4.850;2023-11-21T09:23:46;32.15;;;17.80;;
76039;SDS011;64736;50.462;4.850;2023-11-21T09:26:12;31.80;;;17.58;;
76039;SDS011;64736;50.462;4.850;2023-11-21T09:28:38;38.80;;;18.27;;
76039;SDS011;64736;50.462;4.850;2023-11-21T09:31:04;32.80;;;17.63;;
76039;SDS011;64736;50.462;4.850;2023-11-21T09:33:30;37.33;;;17.08;;
76039;SDS011;64736;50.462;4.850;2023-11-21T09:35:56;30.60;;;17.27;;
76039;SDS011;64736;50.462;4.850;2023-11-21T09:38:22;32.80;;;18.00;;
76039;SDS011;64736;50.462;4.850;2023-11-21T09:40:48;30.25;;;15.77;;
76039;SDS011;64736;50.462;4.850;2023-11-21T09:43:16;35.88;;;18.40;;
76039;SDS011;64736;50.462;4.850;2023-11-21T09:45:44;27.95;;;15.63;;
76039;SDS011;64736;50.462;4.850;2023-11-21T09:48:21;29.35;;;13.35;;
76039;SDS011;64736;50.462;4.850;2023-11-21T09:50:48;29.20;;;16.25;;
76039;SDS011;64736;50.462;4.850;2023-11-21T09:55:52;28.23;;;15.38;;
76039;SDS011;64736;50.462;4.850;2023-11-21T09:58:19;27.85;;;14.02;;
76039;SDS011;64736;50.462;4.850;2023-11-21T10:00:50;28.75;;;15.13;;
76039;SDS011;64736;50.462;4.850;2023-11-21T10:03:23;26.65;;;14.68;;
76039;SDS011;64736;50.462;4.850;2023-11-21T10:05:50;27.10;;;14.57;;
76039;SDS011;64736;50.462;4.850;2023-11-21T10:08:16;30.05;;;15.48;;
76039;SDS011;64736;50.462;4.850;2023-11-21T10:10:44;25.73;;;12.93;;
76039;SDS011;64736;50.462;4.850;2023-11-21T10:13:11;30.88;;;16.33;;
76039;SDS011;64736;50.462;4.850;2023-11-21T10:15:41;26.20;;;14.25;;
76039;SDS011;64736;50.462;4.850;2023-11-21T10:18:14;25.55;;;13.90;;
76039;SDS011;64736;50.462;4.850;2023-11-21T10:20:40;23.13;;;12.90;;
76039;SDS011;64736;50.462;4.850;2023-11-21T10:23:06;22.90;;;12.10;;
76039;SDS011;64736;50.462;4.850;2023-11-21T10:25:37;25.00;;;12.98;;
76039;SDS011;64736;50.462;4.850;2023-11-21T10:28:03;24.88;;;12.20;;
76039;SDS011;64736;50.462;4.850;2023-11-21T10:30:52;19.85;;;11.93;;
76039;SDS011;64736;50.462;4.850;2023-11-21T10:33:17;21.70;;;11.95;;
76039;SDS011;64736;50.462;4.850;2023-11-21T10:35:56;23.55;;;12.93;;
76039;SDS011;64736;50.462;4.850;2023-11-21T10:38:21;23.02;;;12.85;;
76039;SDS011;64736;50.462;4.850;2023-11-21T10:40:49;21.25;;;11.07;;
76039;SDS011;64736;50.462;4.850;2023-11-21T10:43:16;24.15;;;12.45;;
76039;SDS011;64736;50.462;4.850;2023-11-21T10:45:42;21.38;;;12.20;;
76039;SDS011;64736;50.462;4.850;2023-11-21T10:48:09;19.73;;;11.48;;
76039;SDS011;64736;50.462;4.850;2023-11-21T10:50:43;21.15;;;11.15;;
76039;SDS011;64736;50.462;4.850;2023-11-21T10:53:10;17.63;;;9.98;;
76039;SDS011;64736;50.462;4.850;2023-11-21T10:55:38;21.27;;;11.63;;
76039;SDS011;64736;50.462;4.850;2023-11-21T10:58:04;20.10;;;11.82;;
76039;SDS011;64736;50.462;4.850;2023-11-21T11:00:31;18.38;;;9.18;;
76039;SDS011;64736;50.462;4.850;2023-11-21T11:02:58;16.52;;;9.43;;
76039;SDS011;64736;50.462;4.850;2023-11-21T11:05:29;14.45;;;7.97;;
76039;SDS011;64736;50.462;4.850;2023-11-21T11:07:58;13.80;;;7.85;;
76039;SDS011;64736;50.462;4.850;2023-11-21T11:10:29;15.55;;;7.82;;
76039;SDS011;64736;50.462;4.850;2023-11-21T11:12:56;15.15;;;8.73;;
76039;SDS011;64736;50.462;4.850;2023-11-21T11:15:23;16.80;;;9.30;;
76039;SDS011;64736;50.462;4.850;2023-11-21T11:17:49;16.95;;;8.90;;
76039;SDS011;64736;50.462;4.850;2023-11-21T11:20:16;18.85;;;9.05;;
76039;SDS011;64736;50.462;4.850;2023-11-21T11:22:51;17.08;;;9.20;;
76039;SDS011;64736;50.462;4.850;2023-11-21T11:28:29;17.85;;;9.73;;
76039;SDS011;64736;50.462;4.850;2023-11-21T11:33:53;17.45;;;9.45;;
76039;SDS011;64736;50.462;4.850;2023-11-21T11:36:44;17.27;;;9.73;;
76039;SDS011;64736;50.462;4.850;2023-11-21T11:39:30;20.00;;;10.60;;
76039;SDS011;64736;50.462;4.850;2023-11-21T11:42:13;18.60;;;10.43;;
76039;SDS011;64736;50.462;4.850;2023-11-21T11:47:27;19.58;;;10.60;;
76039;SDS011;64736;50.462;4.850;2023-11-21T11:50:07;23.10;;;11.80;;
76039;SDS011;64736;50.462;4.850;2023-11-21T11:52:46;17.70;;;10.13;;
76039;SDS011;64736;50.462;4.850;2023-11-21T11:55:16;20.55;;;12.40;;
76039;SDS011;64736;50.462;4.850;2023-11-21T11:57:47;16.85;;;10.07;;
76039;SDS011;64736;50.462;4.850;2023-11-21T12:02:56;22.23;;;11.75;;
76039;SDS011;64736;50.462;4.850;2023-11-21T12:05:24;22.58;;;10.60;;
76039;SDS011;64736;50.462;4.850;2023-11-21T12:07:53;19.20;;;10.88;;
76039;SDS011;64736;50.462;4.850;2023-11-21T12:10:23;20.95;;;9.98;;
76039;SDS011;64736;50.462;4.850;2023-11-21T12:12:50;19.52;;;9.52;;
76039;SDS011;64736;50.462;4.850;2023-11-21T12:15:20;22.95;;;12.25;;
76039;SDS011;64736;50.462;4.850;2023-11-21T12:17:47;21.67;;;11.48;;
76039;SDS011;64736;50.462;4.850;2023-11-21T12:20:14;20.85;;;10.88;;
76039;SDS011;64736;50.462;4.850;2023-11-21T12:25:17;18.70;;;9.57;;
76039;SDS011;64736;50.462;4.850;2023-11-21T12:27:48;19.30;;;11.15;;
76039;SDS011;64736;50.462;4.850;2023-11-21T12:30:15;17.73;;;10.63;;
76039;SDS011;64736;50.462;4.850;2023-11-21T12:32:48;22.15;;;11.38;;
76039;SDS011;64736;50.462;4.850;2023-11-21T12:35:17;18.58;;;11.10;;
76039;SDS011;64736;50.462;4.850;2023-11-21T12:37:47;19.48;;;10.15;;
76039;SDS011;64736;50.462;4.850;2023-11-21T12:40:14;17.50;;;9.60;;
76039;SDS011;64736;50.462;4.850;2023-11-21T12:42:41;20.48;;;10.68;;
76039;SDS011;64736;50.462;4.850;2023-11-21T12:45:08;18.25;;;8.98;;
76039;SDS011;64736;50.462;4.850;2023-11-21T12:47:42;18.17;;;8.82;;
76039;SDS011;64736;50.462;4.850;2023-11-21T12:50:12;15.40;;;8.07;;
76039;SDS011;64736;50.462;4.850;2023-11-21T12:52:44;14.50;;;8.07;;
76039;SDS011;64736;50.462;4.850;2023-11-21T12:55:13;11.55;;;6.65;;
76039;SDS011;64736;50.462;4.850;2023-11-21T12:57:41;13.65;;;6.75;;
76039;SDS011;64736;50.462;4.850;2023-11-21T13:00:08;14.75;;;7.63;;
76039;SDS011;64736;50.462;4.850;2023-11-21T13:02:43;14.07;;;7.38;;
76039;SDS011;64736;50.462;4.850;2023-11-21T13:05:09;14.50;;;8.05;;
76039;SDS011;64736;50.462;4.850;2023-11-21T13:07:48;15.60;;;10.20;;
76039;SDS011;64736;50.462;4.850;2023-11-21T13:10:14;28.40;;;16.55;;
76039;SDS011;64736;50.462;4.850;2023-11-21T13:12:44;17.38;;;10.43;;
76039;SDS011;64736;50.462;4.850;2023-11-21T13:15:14;18.55;;;9.82;;
76039;SDS011;64736;50.462;4.850;2023-11-21T13:17:43;17.85;;;9.50;;
76039;SDS011;64736;50.462;4.850;2023-11-21T13:20:13;22.05;;;11.88;;
76039;SDS011;64736;50.462;4.850;2023-11-21T13:22:46;24.67;;;14.73;;
76039;SDS011;64736;50.462;4.850;2023-11-21T13:25:14;39.80;;;24.55;;
76039;SDS011;64736;50.462;4.850;2023-11-21T13:27:43;29.23;;;18.38;;
76039;SDS011;64736;50.462;4.850;2023-11-21T13:30:11;20.15;;;10.55;;
76039;SDS011;64736;50.462;4.850;2023-11-21T13:32:41;19.83;;;10.75;;
76039;SDS011;64736;50.462;4.850;2023-11-21T13:35:08;18.15;;;11.82;;
76039;SDS011;64736;50.462;4.850;2023-11-21T13:37:41;18.98;;;9.55;;
76039;SDS011;64736;50.462;4.850;2023-11-21T13:40:07;25.55;;;17.83;;
76039;SDS011;64736;50.462;4.850;2023-11-21T13:42:40;18.35;;;9.10;;
76039;SDS011;64736;50.462;4.850;2023-11-21T13:45:07;26.17;;;15.95;;
76039;SDS011;64736;50.462;4.850;2023-11-21T13:47:33;18.83;;;11.13;;
76039;SDS011;64736;50.462;4.850;2023-11-21T13:50:01;20.70;;;11.63;;
76039;SDS011;64736;50.462;4.850;2023-11-21T13:52:28;19.88;;;9.65;;
76039;SDS011;64736;50.462;4.850;2023-11-21T13:54:57;25.30;;;16.42;;
76039;SDS011;64736;50.462;4.850;2023-11-21T13:57:24;21.98;;;11.80;;
76039;SDS011;64736;50.462;4.850;2023-11-21T13:59:49;21.02;;;10.50;;
76039;SDS011;64736;50.462;4.850;2023-11-21T14:02:16;24.65;;;15.05;;
76039;SDS011;64736;50.462;4.850;2023-11-21T14:04:53;19.33;;;11.30;;
76039;SDS011;64736;50.462;4.850;2023-11-21T14:07:26;19.40;;;10.55;;
76039;SDS011;64736;50.462;4.850;2023-11-21T14:10:01;18.92;;;10.95;;
76039;SDS011;64736;50.462;4.850;2023-11-21T14:12:28;16.95;;;9.82;;
76039;SDS011;64736;50.462;4.850;2023-11-21T14:14:59;19.63;;;11.85;;
76039;SDS011;64736;50.462;4.850;2023-11-21T14:17:26;17.40;;;10.52;;
76039;SDS011;64736;50.462;4.850;2023-11-21T14:19:52;22.45;;;10.43;;
76039;SDS011;64736;50.462;4.850;2023-11-21T14:22:20;17.00;;;9.23;;
76039;SDS011;64736;50.462;4.850;2023-11-21T14:24:46;19.20;;;10.52;;
76039;SDS011;64736;50.462;4.850;2023-11-21T14:27:12;17.20;;;10.02;;
76039;SDS011;64736;50.462;4.850;2023-11-21T14:29:40;14.75;;;9.52;;
76039;SDS011;64736;50.462;4.850;2023-11-21T14:32:10;18.02;;;10.73;;
76039;SDS011;64736;50.462;4.850;2023-11-21T14:34:36;16.20;;;8.45;;
76039;SDS011;64736;50.462;4.850;2023-11-21T14:37:02;16.50;;;8.20;;
76039;SDS011;64736;50.462;4.850;2023-11-21T14:39:31;15.45;;;8.23;;
76039;SDS011;64736;50.462;4.850;2023-11-21T14:44:28;13.05;;;7.78;;